SQ336 / 9V-SWL 7700 Squawk Report (18th of November, 2018)

Aircraft B77W Reg No. 9V-SWL Age 11 years old
Model 777 Jet engines 2 First flight 14-10-07
Registered 29-10-07 Rollout 27-09-07 Delivered 29-10-07
Construction No. 34577 Line No. 0673 Series 312(ER)
ADSHEX 76CEEC Airline name Singapore Airlines Owner N/A
Airfield based Changi~ ~9V First tracked 2011-04-01 19:30:03

Flight history for 9V-SWL

Time Lat Lon Altitude Heading Speed Vertical Rate
2018-11-18 18:21:13 GMT 1.270876 103.960548 1,250 23 165 -896
2018-11-18 18:21:10 GMT 1.268463 103.959526 1,300 22 165 -832
2018-11-18 18:20:59 GMT 1.260544 103.956177 1,450 23 166 -832
2018-11-18 18:20:46 GMT 1.251755 103.952454 1,625 22 164 -896
2018-11-18 18:20:35 GMT 1.244156 103.949242 1,775 23 165 -896
2018-11-18 18:20:24 GMT 1.236511 103.946030 1,950 23 165 -832
2018-11-18 18:20:10 GMT 1.226395 103.941742 2,150 23 176 -960
2018-11-18 18:20:00 GMT 1.218319 103.938339 2,300 22 185 -960
2018-11-18 18:19:51 GMT 1.211472 103.935455 2,450 22 183 64
2018-11-18 18:19:37 GMT 1.200210 103.930855 2,500 22 187 -64
2018-11-18 18:19:28 GMT 1.192529 103.927681 2,500 23 190 -128
2018-11-18 18:19:10 GMT 1.178470 103.920433 2,550 32 203 64
2018-11-18 18:19:07 GMT 1.175720 103.918190 2,525 34 204 64
2018-11-18 18:17:55 GMT 1.135757 103.948868 2,725 271 232 -704
2018-11-18 18:17:50 GMT 1.135666 103.954033 2,775 271 234 -576
2018-11-18 18:17:27 GMT 1.135363 103.979012 3,000 270 245 -704
2018-11-18 18:16:46 GMT 1.146814 104.025612 3,500 247 259 -640
2018-11-18 18:16:43 GMT 1.148351 104.029160 3,550 247 261 -768
2018-11-18 18:16:30 GMT 1.154635 104.043365 3,750 247 263 -1152
2018-11-18 18:16:22 GMT 1.158778 104.052742 3,925 247 263 -768
2018-11-18 18:13:58 GMT 1.230789 104.214355 4,050 247 264 -64
We lost coverage of the aircraft here for a total of 28 minutes
2018-11-18 17:45:46 GMT 1.325409 104.347916 6,100 89 293 -64
2018-11-18 17:44:31 GMT 1.382695 104.285683 6,100 201 291 0
2018-11-18 17:40:23 GMT 1.330323 104.329010 6,075 88 292 0
2018-11-18 17:40:17 GMT 1.330124 104.322258 6,075 88 292 0
We lost coverage of the aircraft here for a total of 8 minutes
2018-11-18 17:32:05 GMT 1.513367 104.289909 6,075 147 304 0
2018-11-18 17:31:56 GMT 1.525360 104.282318 6,100 147 304 0
2018-11-18 17:31:49 GMT 1.533710 104.277016 6,100 147 304 0
2018-11-18 17:31:37 GMT 1.548843 104.267517 6,100 147 305 0
2018-11-18 17:31:27 GMT 1.559372 104.260857 6,100 147 306 0
2018-11-18 17:31:19 GMT 1.568069 104.255409 6,100 147 306 0
2018-11-18 17:31:06 GMT 1.584412 104.245216 6,100 148 304 64
2018-11-18 17:30:56 GMT 1.596230 104.237953 6,075 148 305 64
2018-11-18 17:30:46 GMT 1.608582 104.230461 6,075 148 305 64
2018-11-18 17:29:27 GMT 1.707396 104.168953 6,075 149 346 128
2018-11-18 17:29:10 GMT 1.730988 104.155327 6,075 149 346 128
2018-11-18 17:28:17 GMT 1.806656 104.111984 6,075 150 359 64
We lost coverage of the aircraft here for a total of 21 minutes
2018-11-18 17:06:51 GMT 3.436021 103.377609 16,325 309 406 -2560
2018-11-18 17:06:42 GMT 3.425733 103.390533 16,675 314 408 -2176
2018-11-18 17:05:51 GMT 3.341721 103.442238 18,175 337 424 -1472
2018-11-18 17:05:42 GMT 3.325459 103.449203 18,375 336 426 -1536
2018-11-18 17:05:30 GMT 3.304511 103.458679 18,700 336 428 -1984
2018-11-18 17:05:20 GMT 3.286309 103.466919 19,050 336 430 -2624
2018-11-18 17:05:09 GMT 3.266710 103.475677 19,525 336 427 -3264
2018-11-18 17:05:00 GMT 3.249393 103.483398 20,100 336 420 -3904
2018-11-18 17:04:49 GMT 3.230213 103.491920 20,725 336 416 -2880
2018-11-18 17:04:38 GMT 3.210800 103.500610 21,050 336 418 -832
2018-11-18 17:04:27 GMT 3.191156 103.509445 21,175 336 425 -640
2018-11-18 17:04:16 GMT 3.171936 103.518074 21,275 336 432 -512
2018-11-18 17:04:06 GMT 3.152378 103.526917 21,350 336 441 -640
2018-11-18 17:03:55 GMT 3.132081 103.536057 21,500 336 446 -1088
2018-11-18 17:03:45 GMT 3.112343 103.544960 21,725 336 451 -1728
2018-11-18 17:03:34 GMT 3.091627 103.554291 22,025 336 453 -1920
2018-11-18 17:03:23 GMT 3.071703 103.563332 22,600 336 455 -2368
2018-11-18 17:03:17 GMT 3.057085 103.569962 22,600 336 455 -2368
2018-11-18 17:03:11 GMT 3.046285 103.574890 22,825 336 455 -2560
2018-11-18 17:03:02 GMT 3.030579 103.582085 23,150 336 455 -2496
2018-11-18 17:02:51 GMT 3.009064 103.591904 23,575 336 454 -2304
2018-11-18 17:02:40 GMT 2.988747 103.601166 23,925 336 454 -1344
2018-11-18 17:02:30 GMT 2.969567 103.609932 24,025 336 456 64
2018-11-18 17:02:19 GMT 2.949051 103.619232 24,025 336 458 0
2018-11-18 17:02:08 GMT 2.927717 103.628822 24,025 336 460 0
2018-11-18 17:01:58 GMT 2.906675 103.638153 24,025 337 461 0
2018-11-18 17:01:47 GMT 2.885056 103.647583 24,025 337 462 0
2018-11-18 17:01:37 GMT 2.866196 103.655823 24,025 337 462 -64
2018-11-18 17:01:26 GMT 2.844910 103.665039 24,050 337 462 -192
2018-11-18 17:01:16 GMT 2.824836 103.673714 24,075 337 462 -128
2018-11-18 17:01:04 GMT 2.801979 103.683617 24,025 337 461 960
2018-11-18 17:00:55 GMT 2.782791 103.691895 23,925 337 458 832
2018-11-18 17:00:44 GMT 2.762130 103.700851 23,775 337 455 1088
2018-11-18 17:00:32 GMT 2.739349 103.710983 23,575 336 454 1152
2018-11-18 16:59:59 GMT 2.675949 103.739937 22,950 336 449 1408
2018-11-18 16:59:34 GMT 2.628296 103.761772 22,500 336 446 1152
2018-11-18 16:59:28 GMT 2.617035 103.766937 22,375 336 445 1344
2018-11-18 16:59:19 GMT 2.600920 103.774345 22,175 336 444 1536
2018-11-18 16:59:09 GMT 2.580716 103.783676 21,925 336 442 1536
2018-11-18 16:58:58 GMT 2.560559 103.792953 21,675 336 442 1600
2018-11-18 16:58:47 GMT 2.540402 103.802284 21,400 336 442 1536
We lost coverage of the aircraft here for a total of 8 minutes
2018-11-18 16:51:10 GMT 1.701096 103.941368 8,825 332 360 2304
2018-11-18 16:50:44 GMT 1.662986 103.961777 8,150 332 345 1024
2018-11-18 16:50:36 GMT 1.651520 103.968002 8,025 332 339 1024
2018-11-18 16:50:26 GMT 1.638382 103.975121 7,825 332 330 2112
2018-11-18 16:49:35 GMT 1.571457 104.011948 6,075 331 314 2560
2018-11-18 16:49:09 GMT 1.538691 104.029869 5,100 332 308 2240

Making use of Plane Finder data

You are free to use the raw flight data, aircraft information and images provided in this report for your own purposes provided the data is correctly attributed to Plane Finder. We ask that you please credit Plane Finder and link to planefinder.net in close proximity to the content.

Optionally one of the following logos (no smaller then 150x24px) can be used and must link to planefinder.net

Embedding the Plane Finder map

You are welcome to embed the Plane Finder playback map on your website to offer visitors a more interactive experience. We suggest using the following HTML code:

<iframe src="//planefinder.net/data/report/SQ336-9V-SWL-7700-squawk-2018-11-18/map" width="800" height="600" seamless="seamless"></iframe>

Where our data comes from

Plane Finder has a global network of data feeds and antenna radars that receive data broadcast directly from aircraft. The primary technologies used are ADS-B and MLAT. We also show feeds from the FAA and a FLARM glider feed.

Click here to find out more about the Plane Finder network.

How we collect our data